createdAt,value
2022-12-23T00:00:19.989Z,18.00
2022-12-23T00:02:56.183Z,14.63
2022-12-23T00:05:22.875Z,12.25
2022-12-23T00:07:55.321Z,15.68
2022-12-23T00:10:22.648Z,16.08
2022-12-23T00:13:08.230Z,14.90
2022-12-23T00:15:34.713Z,17.25
2022-12-23T00:18:01.263Z,18.30
2022-12-23T00:20:34.382Z,15.93
2022-12-23T00:23:07.480Z,12.93
2022-12-23T00:25:44.463Z,21.27
2022-12-23T00:28:15.000Z,12.20
2022-12-23T00:30:56.354Z,9.95
2022-12-23T00:33:25.676Z,11.87
2022-12-23T00:35:53.109Z,11.98
2022-12-23T00:38:39.606Z,10.23
2022-12-23T00:41:29.341Z,17.38
2022-12-23T00:43:58.399Z,12.50
2022-12-23T00:46:25.607Z,12.55
2022-12-23T00:49:11.142Z,15.98
2022-12-23T00:51:37.563Z,12.18
2022-12-23T00:54:06.797Z,16.20
2022-12-23T00:56:33.813Z,15.50
2022-12-23T00:59:00.545Z,14.20
2022-12-23T01:01:45.967Z,13.20
2022-12-23T01:04:32.735Z,14.68
2022-12-23T01:07:03.387Z,12.23
2022-12-23T01:09:29.837Z,13.65
2022-12-23T01:11:57.338Z,12.30
2022-12-23T01:14:24.356Z,16.95
2022-12-23T01:16:50.891Z,15.25
2022-12-23T01:19:17.461Z,13.55
2022-12-23T01:21:44.036Z,15.20
2022-12-23T01:24:10.531Z,16.65
2022-12-23T01:26:37.010Z,14.40
2022-12-23T01:29:03.417Z,12.75
2022-12-23T01:31:30.203Z,15.60
2022-12-23T01:33:56.959Z,13.48
2022-12-23T01:36:23.806Z,13.40
2022-12-23T01:38:50.283Z,15.73
2022-12-23T01:41:39.598Z,14.43
2022-12-23T01:44:43.573Z,17.75
2022-12-23T01:47:14.728Z,13.77
2022-12-23T01:49:42.682Z,12.90
2022-12-23T01:52:10.806Z,17.67
2022-12-23T01:54:37.845Z,13.63
2022-12-23T01:57:04.524Z,16.45
2022-12-23T01:59:49.597Z,16.73
2022-12-23T02:02:34.509Z,12.85
2022-12-23T02:05:02.033Z,14.73
2022-12-23T02:07:47.631Z,13.00
2022-12-23T02:10:15.984Z,11.70
2022-12-23T02:12:52.957Z,13.05
2022-12-23T02:15:57.319Z,15.10
2022-12-23T02:18:29.442Z,14.35
2022-12-23T02:23:34.488Z,13.35
2022-12-23T02:26:20.573Z,13.77
2022-12-23T02:28:46.896Z,14.27
2022-12-23T02:31:29.277Z,12.38
2022-12-23T02:34:07.995Z,13.77
2022-12-23T02:36:34.382Z,14.77
2022-12-23T02:39:14.900Z,13.07
2022-12-23T02:41:55.240Z,15.45
2022-12-23T02:44:35.159Z,14.50
2022-12-23T02:47:10.231Z,12.25
2022-12-23T02:49:41.446Z,11.20
2022-12-23T02:52:13.997Z,15.10
2022-12-23T02:54:46.973Z,13.32
2022-12-23T02:57:17.126Z,12.18
2022-12-23T02:59:53.938Z,11.07
2022-12-23T03:02:20.528Z,14.05
2022-12-23T03:04:47.041Z,9.30
2022-12-23T03:07:39.683Z,10.15
2022-12-23T03:10:26.200Z,9.27
2022-12-23T03:13:02.663Z,12.32
2022-12-23T03:15:57.252Z,11.18
2022-12-23T03:18:29.515Z,12.18
2022-12-23T03:23:59.877Z,12.95
2022-12-23T03:26:40.479Z,10.43
2022-12-23T03:29:27.150Z,13.48
2022-12-23T03:31:57.532Z,9.43
2022-12-23T03:34:29.940Z,11.32
2022-12-23T03:37:00.674Z,11.63
2022-12-23T03:39:34.527Z,10.60
2022-12-23T03:42:10.804Z,14.52
2022-12-23T03:45:19.360Z,13.57
2022-12-23T03:47:44.515Z,13.35
2022-12-23T03:50:17.417Z,13.93
2022-12-23T03:52:46.575Z,11.48
2022-12-23T03:55:20.648Z,11.65
2022-12-23T03:57:50.982Z,12.68
2022-12-23T04:00:20.485Z,12.57
2022-12-23T04:03:02.103Z,11.05
2022-12-23T04:05:36.011Z,11.85
2022-12-23T04:08:17.310Z,10.98
2022-12-23T04:10:43.769Z,10.77
2022-12-23T04:13:10.299Z,11.38
2022-12-23T04:15:43.491Z,12.00
2022-12-23T04:18:11.004Z,11.70
2022-12-23T04:20:37.924Z,11.93
2022-12-23T04:23:04.498Z,11.55
2022-12-23T04:25:33.587Z,11.02
2022-12-23T04:28:00.102Z,12.27
2022-12-23T04:30:31.664Z,13.73
2022-12-23T04:33:01.667Z,12.23
2022-12-23T04:35:28.110Z,12.88
2022-12-23T04:37:54.537Z,13.55
2022-12-23T04:40:21.040Z,12.88
2022-12-23T04:42:47.450Z,11.65
2022-12-23T04:45:13.935Z,11.52
2022-12-23T04:47:40.767Z,12.80
2022-12-23T04:50:08.221Z,16.92
2022-12-23T04:52:34.641Z,15.45
2022-12-23T04:55:01.117Z,13.27
2022-12-23T04:57:27.643Z,12.07
2022-12-23T04:59:53.975Z,13.43
2022-12-23T05:02:20.465Z,12.82
2022-12-23T05:04:46.951Z,11.85
2022-12-23T05:07:13.288Z,12.88
2022-12-23T05:09:39.759Z,14.23
2022-12-23T05:12:06.253Z,16.45
2022-12-23T05:14:32.866Z,16.00
2022-12-23T05:17:07.167Z,12.38
2022-12-23T05:19:33.932Z,16.50
2022-12-23T05:22:00.327Z,12.85
2022-12-23T05:24:26.757Z,18.20
2022-12-23T05:26:59.647Z,20.13
2022-12-23T05:29:27.049Z,23.10
2022-12-23T05:31:53.556Z,23.17
2022-12-23T05:34:20.193Z,23.45
2022-12-23T05:36:46.623Z,23.38
2022-12-23T05:39:13.048Z,18.85
2022-12-23T05:41:39.408Z,21.70
2022-12-23T05:44:05.850Z,27.52
2022-12-23T05:46:34.316Z,24.98
2022-12-23T05:49:00.674Z,24.13
2022-12-23T05:51:27.070Z,21.27
2022-12-23T05:53:53.458Z,24.75
2022-12-23T05:56:19.858Z,16.67
2022-12-23T05:58:48.534Z,16.85
2022-12-23T06:01:14.913Z,13.00
2022-12-23T06:03:41.469Z,12.65
2022-12-23T06:06:08.237Z,11.27
2022-12-23T06:08:34.882Z,11.32
2022-12-23T06:11:07.605Z,9.52
2022-12-23T06:13:34.301Z,11.05
2022-12-23T06:16:00.965Z,7.75
2022-12-23T06:18:27.725Z,10.80
2022-12-23T06:20:54.228Z,9.55
2022-12-23T06:23:20.670Z,10.35
2022-12-23T06:25:47.034Z,8.23
2022-12-23T06:28:13.472Z,8.55
2022-12-23T06:30:39.899Z,9.38
2022-12-23T06:33:06.382Z,8.13
2022-12-23T06:35:32.729Z,8.27
2022-12-23T06:37:59.063Z,7.95
2022-12-23T06:40:26.006Z,8.57
2022-12-23T06:42:52.441Z,8.60
2022-12-23T06:45:18.793Z,9.85
2022-12-23T06:47:45.214Z,8.35
2022-12-23T06:50:11.783Z,10.57
2022-12-23T06:52:38.306Z,8.93
2022-12-23T06:55:05.401Z,9.43
2022-12-23T06:57:31.832Z,11.13
2022-12-23T06:59:58.196Z,10.48
2022-12-23T07:02:25.202Z,10.20
2022-12-23T07:04:52.060Z,10.77
2022-12-23T07:07:18.642Z,10.40
2022-12-23T07:09:45.079Z,11.05
2022-12-23T07:12:11.491Z,10.40
2022-12-23T07:14:37.859Z,10.75
2022-12-23T07:17:04.285Z,11.85
2022-12-23T07:19:31.015Z,14.00
2022-12-23T07:21:57.507Z,13.38
2022-12-23T07:24:24.081Z,13.75
2022-12-23T07:26:51.144Z,12.55
2022-12-23T07:29:17.680Z,13.40
2022-12-23T07:31:44.165Z,15.18
2022-12-23T07:34:10.617Z,13.15
2022-12-23T07:36:37.079Z,15.35
2022-12-23T07:39:08.848Z,15.95
2022-12-23T07:41:35.272Z,17.95
2022-12-23T07:44:01.892Z,16.08
2022-12-23T07:46:28.411Z,15.88
2022-12-23T07:48:55.018Z,15.77
2022-12-23T07:51:21.587Z,15.60
2022-12-23T07:53:50.226Z,16.48
2022-12-23T07:56:17.171Z,15.82
2022-12-23T07:58:43.612Z,15.65
2022-12-23T08:01:10.129Z,14.05
2022-12-23T08:03:36.762Z,18.42
2022-12-23T08:06:08.350Z,18.67
2022-12-23T08:08:35.418Z,13.95
2022-12-23T08:11:07.668Z,16.80
2022-12-23T08:13:37.062Z,15.38
2022-12-23T08:16:05.166Z,16.73
2022-12-23T08:18:34.119Z,15.38
2022-12-23T08:21:04.680Z,15.50
2022-12-23T08:23:31.944Z,14.73
2022-12-23T08:26:08.612Z,16.70
2022-12-23T08:28:36.604Z,16.67
2022-12-23T08:31:23.931Z,14.77
2022-12-23T08:33:54.089Z,17.80
2022-12-23T08:36:24.910Z,15.27
2022-12-23T08:38:53.745Z,15.50
2022-12-23T08:41:26.136Z,14.25
2022-12-23T08:43:53.004Z,15.68
2022-12-23T08:46:19.907Z,15.57
2022-12-23T08:48:49.486Z,18.92
2022-12-23T08:51:18.048Z,18.08
2022-12-23T08:53:44.770Z,15.38
2022-12-23T08:56:14.936Z,18.95
2022-12-23T08:58:45.454Z,16.52
2022-12-23T09:01:15.161Z,17.92
2022-12-23T09:03:45.007Z,16.48
2022-12-23T09:06:23.172Z,14.98
2022-12-23T09:08:53.423Z,15.57
2022-12-23T09:11:22.744Z,16.85
2022-12-23T09:13:50.159Z,16.20
2022-12-23T09:16:17.277Z,16.10
2022-12-23T09:18:44.286Z,20.45
2022-12-23T09:21:16.795Z,16.48
2022-12-23T09:23:43.344Z,20.40
2022-12-23T09:26:11.108Z,18.70
2022-12-23T09:28:37.690Z,19.23
2022-12-23T09:31:11.894Z,17.98
2022-12-23T09:33:39.941Z,22.00
2022-12-23T09:36:06.949Z,20.60
2022-12-23T09:38:33.925Z,22.95
2022-12-23T09:41:34.842Z,22.75
2022-12-23T09:44:27.468Z,26.40
2022-12-23T09:47:00.681Z,26.50
2022-12-23T09:49:28.536Z,44.85
2022-12-23T09:52:01.378Z,32.97
2022-12-23T09:54:34.029Z,33.70
2022-12-23T09:57:03.756Z,31.48
2022-12-23T09:59:42.553Z,27.92
2022-12-23T10:02:45.254Z,34.42
2022-12-23T10:05:14.992Z,31.10
2022-12-23T10:08:15.223Z,25.63
2022-12-23T10:10:52.470Z,25.63
2022-12-23T10:13:37.534Z,19.27
2022-12-23T10:16:12.639Z,27.17
2022-12-23T10:18:45.196Z,22.35
2022-12-23T10:21:25.113Z,17.33
2022-12-23T10:23:55.707Z,20.30
2022-12-23T10:26:28.199Z,23.55
2022-12-23T10:29:01.380Z,20.33
2022-12-23T10:32:02.440Z,20.63
2022-12-23T10:34:50.070Z,18.88
2022-12-23T10:37:34.387Z,23.33
2022-12-23T10:40:19.199Z,16.27
2022-12-23T10:43:09.056Z,18.48
2022-12-23T10:46:13.502Z,19.63
2022-12-23T10:49:03.535Z,17.42
2022-12-23T10:51:37.499Z,16.52
2022-12-23T10:54:15.214Z,18.73
2022-12-23T10:56:43.278Z,19.55
2022-12-23T10:59:15.497Z,16.45
2022-12-23T11:04:17.087Z,17.23
2022-12-23T11:07:10.622Z,16.27
2022-12-23T11:09:55.144Z,21.20
2022-12-23T11:12:40.482Z,18.85
2022-12-23T11:15:28.797Z,23.60
2022-12-23T11:18:14.531Z,21.98
2022-12-23T11:20:43.195Z,27.75
2022-12-23T11:23:26.110Z,26.23
2022-12-23T11:26:05.229Z,25.92
2022-12-23T11:28:34.243Z,24.73
2022-12-23T11:31:13.058Z,32.63
2022-12-23T11:34:01.777Z,26.55
2022-12-23T11:36:30.261Z,22.42
2022-12-23T11:39:11.797Z,22.10
2022-12-23T11:41:48.544Z,19.45
2022-12-23T11:44:28.443Z,21.63
2022-12-23T11:46:55.045Z,21.58
2022-12-23T11:49:31.428Z,18.20
2022-12-23T11:52:02.778Z,18.02
2022-12-23T11:54:29.723Z,20.05
2022-12-23T11:56:56.881Z,18.55
2022-12-23T11:59:42.106Z,17.58
2022-12-23T12:02:20.429Z,20.98
2022-12-23T12:04:58.949Z,23.63
2022-12-23T12:07:26.613Z,22.92
2022-12-23T12:09:57.763Z,19.20
2022-12-23T12:12:24.384Z,26.03
2022-12-23T12:14:54.254Z,20.55
2022-12-23T12:17:33.205Z,23.95
2022-12-23T12:20:24.140Z,21.55
2022-12-23T12:23:05.163Z,26.02
2022-12-23T12:25:48.783Z,24.92
2022-12-23T12:28:41.057Z,31.35
2022-12-23T12:31:25.871Z,29.10
2022-12-23T12:34:24.053Z,26.42
2022-12-23T12:36:59.989Z,27.65
2022-12-23T12:39:38.055Z,25.92
2022-12-23T12:42:14.847Z,20.92
2022-12-23T12:44:47.982Z,19.23
2022-12-23T12:47:52.262Z,23.10
2022-12-23T12:50:23.479Z,23.63
2022-12-23T12:55:29.669Z,24.63
2022-12-23T12:57:56.183Z,21.88
2022-12-23T13:00:24.335Z,24.90
2022-12-23T13:03:15.215Z,25.92
2022-12-23T13:05:55.756Z,24.00
2022-12-23T13:08:40.257Z,21.92
2022-12-23T13:11:44.854Z,22.15
2022-12-23T13:14:22.457Z,20.33
2022-12-23T13:17:32.443Z,22.60
2022-12-23T13:20:24.113Z,20.33
2022-12-23T13:22:55.702Z,23.05
2022-12-23T13:25:29.493Z,24.00
2022-12-23T13:27:58.430Z,27.13
2022-12-23T13:30:32.137Z,19.92
2022-12-23T13:33:22.707Z,20.10
2022-12-23T13:36:11.492Z,19.15
2022-12-23T13:38:51.171Z,19.48
2022-12-23T13:41:40.085Z,18.70
2022-12-23T13:44:12.182Z,20.77
2022-12-23T13:46:46.916Z,24.60
2022-12-23T13:49:32.339Z,21.38
2022-12-23T13:52:19.947Z,20.63
2022-12-23T13:55:21.493Z,17.98
2022-12-23T13:58:01.490Z,18.60
2022-12-23T14:00:31.227Z,20.08
2022-12-23T14:02:57.608Z,16.65
2022-12-23T14:05:33.015Z,17.15
2022-12-23T14:08:02.179Z,16.38
2022-12-23T14:10:30.018Z,18.33
2022-12-23T14:13:05.929Z,17.73
2022-12-23T14:15:47.947Z,15.38
2022-12-23T14:21:05.709Z,18.23
2022-12-23T14:23:39.721Z,17.15
2022-12-23T14:26:41.532Z,16.58
2022-12-23T14:29:27.767Z,17.92
2022-12-23T14:31:57.200Z,22.80
2022-12-23T14:34:26.345Z,18.25
2022-12-23T14:37:24.300Z,20.98
2022-12-23T14:39:51.521Z,23.45
2022-12-23T14:42:33.140Z,19.70
2022-12-23T14:45:33.582Z,20.23
2022-12-23T14:48:01.403Z,18.35
2022-12-23T14:50:34.797Z,20.33
2022-12-23T14:53:21.771Z,21.13
2022-12-23T14:55:49.944Z,19.75
2022-12-23T14:58:16.251Z,19.83
2022-12-23T15:01:16.971Z,18.08
2022-12-23T15:03:47.482Z,17.70
2022-12-23T15:06:21.417Z,15.55
2022-12-23T15:08:52.595Z,19.20
2022-12-23T15:11:26.931Z,16.87
2022-12-23T15:13:54.985Z,15.30
2022-12-23T15:16:30.738Z,15.70
2022-12-23T15:19:02.825Z,16.17
2022-12-23T15:21:36.287Z,17.80
2022-12-23T15:24:02.881Z,14.35
2022-12-23T15:26:32.554Z,17.65
2022-12-23T15:29:00.527Z,17.02
2022-12-23T15:31:31.416Z,17.35
2022-12-23T15:34:10.251Z,18.30
2022-12-23T15:36:43.897Z,18.25
2022-12-23T15:39:19.279Z,16.30
2022-12-23T15:41:47.222Z,19.20
2022-12-23T15:44:20.267Z,20.48
2022-12-23T15:46:50.801Z,26.05
2022-12-23T15:49:19.300Z,19.02
2022-12-23T15:52:07.955Z,20.20
2022-12-23T15:54:46.417Z,18.98
2022-12-23T15:57:18.062Z,19.55
2022-12-23T15:59:44.968Z,17.17
2022-12-23T16:05:07.978Z,18.27
2022-12-23T16:07:38.113Z,20.90
2022-12-23T16:10:25.048Z,22.25
2022-12-23T16:12:54.202Z,21.80
2022-12-23T16:15:25.722Z,20.23
2022-12-23T16:17:52.167Z,24.05
2022-12-23T16:20:23.758Z,18.55
2022-12-23T16:22:54.175Z,20.33
2022-12-23T16:25:50.156Z,19.90
2022-12-23T16:28:24.503Z,27.58
2022-12-23T16:30:57.464Z,22.08
2022-12-23T16:33:34.058Z,18.55
2022-12-23T16:36:18.793Z,19.27
2022-12-23T16:38:46.198Z,28.88
2022-12-23T16:41:12.953Z,24.02
2022-12-23T16:43:39.466Z,22.52
2022-12-23T16:46:08.276Z,20.10
2022-12-23T16:48:36.591Z,18.08
2022-12-23T16:51:09.418Z,17.38
2022-12-23T16:53:35.764Z,19.20
2022-12-23T16:56:02.772Z,17.45
2022-12-23T16:58:29.828Z,17.00
2022-12-23T17:01:03.273Z,19.00
2022-12-23T17:03:29.768Z,16.20
2022-12-23T17:05:57.670Z,22.48
2022-12-23T17:08:24.268Z,17.23
2022-12-23T17:10:51.240Z,17.77
2022-12-23T17:13:21.017Z,19.30
2022-12-23T17:15:47.605Z,18.65
2022-12-23T17:18:17.904Z,19.73
2022-12-23T17:20:46.157Z,18.20
2022-12-23T17:23:42.088Z,19.23
2022-12-23T17:26:08.626Z,18.42
2022-12-23T17:28:35.094Z,20.95
2022-12-23T17:31:01.685Z,20.70
2022-12-23T17:33:31.177Z,19.40
2022-12-23T17:35:58.697Z,17.30
2022-12-23T17:38:25.636Z,17.08
2022-12-23T17:40:52.259Z,15.82
2022-12-23T17:43:19.110Z,18.33
2022-12-23T17:45:45.791Z,16.92
2022-12-23T17:48:20.214Z,16.77
2022-12-23T17:50:48.860Z,21.98
2022-12-23T17:53:19.597Z,17.50
2022-12-23T17:55:46.538Z,18.83
2022-12-23T17:58:14.218Z,17.33
2022-12-23T18:00:41.454Z,16.25
2022-12-23T18:03:20.846Z,17.52
2022-12-23T18:05:47.493Z,19.73
2022-12-23T18:08:13.931Z,15.75
2022-12-23T18:10:41.022Z,16.63
2022-12-23T18:13:14.373Z,15.45
2022-12-23T18:15:43.236Z,14.05
2022-12-23T18:18:26.396Z,13.73
2022-12-23T18:20:59.985Z,13.15
2022-12-23T18:23:37.221Z,9.77
2022-12-23T18:26:03.831Z,14.50
2022-12-23T18:28:30.301Z,12.50
2022-12-23T18:30:57.017Z,10.90
2022-12-23T18:33:28.487Z,10.30
2022-12-23T18:35:55.001Z,7.35
2022-12-23T18:38:21.356Z,8.32
2022-12-23T18:40:52.084Z,8.55
2022-12-23T18:43:30.735Z,8.00
2022-12-23T18:45:57.237Z,6.65
2022-12-23T18:48:23.658Z,9.43
2022-12-23T18:50:52.070Z,10.02
2022-12-23T18:53:24.581Z,9.82
2022-12-23T18:55:52.920Z,9.93
2022-12-23T18:58:19.468Z,7.70
2022-12-23T19:00:46.990Z,8.73
2022-12-23T19:03:33.979Z,11.85
2022-12-23T19:06:06.508Z,17.55
2022-12-23T19:08:34.385Z,14.77
2022-12-23T19:11:01.494Z,16.70
2022-12-23T19:13:34.169Z,16.23
2022-12-23T19:16:03.904Z,16.10
2022-12-23T19:18:33.474Z,16.50
2022-12-23T19:21:04.331Z,23.73
2022-12-23T19:23:30.827Z,23.40
2022-12-23T19:28:42.695Z,26.60
2022-12-23T19:31:13.707Z,23.92
2022-12-23T19:33:48.425Z,19.42
2022-12-23T19:36:22.900Z,27.23
2022-12-23T19:38:50.019Z,31.00
2022-12-23T19:41:17.909Z,25.58
2022-12-23T19:43:46.437Z,26.05
2022-12-23T19:46:15.292Z,31.10
2022-12-23T19:48:43.206Z,33.45
2022-12-23T19:51:13.924Z,39.92
2022-12-23T19:53:41.548Z,33.28
2022-12-23T19:56:11.897Z,32.20
2022-12-23T19:58:41.387Z,29.00
2022-12-23T20:01:20.166Z,33.88
2022-12-23T20:03:51.587Z,32.95
2022-12-23T20:06:39.264Z,27.65
2022-12-23T20:09:15.979Z,29.23
2022-12-23T20:11:46.067Z,35.45
2022-12-23T20:14:21.911Z,26.60
2022-12-23T20:16:49.307Z,30.88
2022-12-23T20:19:16.850Z,26.17
2022-12-23T20:21:45.917Z,26.73
2022-12-23T20:24:13.788Z,21.38
2022-12-23T20:26:44.087Z,25.88
2022-12-23T20:29:10.654Z,23.98
2022-12-23T20:31:40.191Z,17.55
2022-12-23T20:34:08.745Z,23.33
2022-12-23T20:36:36.688Z,23.40
2022-12-23T20:39:04.718Z,25.65
2022-12-23T20:41:33.205Z,21.58
2022-12-23T20:44:33.172Z,23.42
2022-12-23T20:46:49.272Z,15.65
2022-12-23T20:49:15.706Z,18.85
2022-12-23T20:51:42.462Z,17.55
2022-12-23T20:54:09.473Z,16.63
2022-12-23T20:56:36.228Z,16.20
2022-12-23T20:59:03.996Z,16.95
2022-12-23T21:01:35.344Z,15.02
2022-12-23T21:04:05.277Z,12.05
2022-12-23T21:06:32.859Z,19.00
2022-12-23T21:09:05.121Z,13.52
2022-12-23T21:11:34.152Z,16.83
2022-12-23T21:14:06.098Z,15.65
2022-12-23T21:16:45.512Z,18.55
2022-12-23T21:19:24.744Z,16.52
2022-12-23T21:21:56.714Z,13.98
2022-12-23T21:24:23.399Z,14.27
2022-12-23T21:26:56.039Z,18.60
2022-12-23T21:29:22.787Z,18.30
2022-12-23T21:31:49.413Z,14.35
2022-12-23T21:34:15.798Z,16.60
2022-12-23T21:36:42.693Z,16.50
2022-12-23T21:39:14.872Z,12.60
2022-12-23T21:44:11.553Z,11.60
2022-12-23T21:46:40.631Z,22.88
2022-12-23T21:49:13.018Z,14.63
2022-12-23T21:51:41.287Z,10.88
2022-12-23T21:54:15.242Z,23.98
2022-12-23T21:56:42.115Z,17.63
2022-12-23T21:59:13.574Z,24.23
2022-12-23T22:01:43.950Z,12.95
2022-12-23T22:04:18.312Z,11.55
2022-12-23T22:06:46.772Z,16.75
2022-12-23T22:09:16.131Z,11.35
2022-12-23T22:11:42.756Z,13.85
2022-12-23T22:14:12.046Z,16.85
2022-12-23T22:16:40.699Z,20.73
2022-12-23T22:19:08.735Z,24.05
2022-12-23T22:21:39.537Z,12.35
2022-12-23T22:26:36.741Z,16.98
2022-12-23T22:29:06.272Z,14.40
2022-12-23T22:31:44.836Z,19.48
2022-12-23T22:34:14.505Z,21.50
2022-12-23T22:36:40.941Z,16.77
2022-12-23T22:39:08.254Z,18.88
2022-12-23T22:41:56.631Z,22.73
2022-12-23T22:44:25.041Z,14.98
2022-12-23T22:46:52.542Z,18.73
2022-12-23T22:49:19.179Z,17.77
2022-12-23T22:51:46.078Z,20.58
2022-12-23T22:54:12.548Z,19.40
2022-12-23T22:56:40.124Z,16.50
2022-12-23T22:59:06.772Z,18.25
2022-12-23T23:01:40.599Z,21.48
2022-12-23T23:04:07.874Z,12.27
2022-12-23T23:06:41.656Z,19.92
2022-12-23T23:09:15.345Z,16.92
2022-12-23T23:11:44.263Z,17.00
2022-12-23T23:14:11.905Z,19.65
2022-12-23T23:16:45.096Z,15.10
2022-12-23T23:19:12.387Z,16.75
2022-12-23T23:21:39.120Z,16.60
2022-12-23T23:24:06.099Z,18.35
2022-12-23T23:26:32.631Z,17.75
2022-12-23T23:29:00.127Z,19.40
2022-12-23T23:31:43.688Z,25.27
2022-12-23T23:34:12.225Z,17.50
2022-12-23T23:36:38.920Z,21.55
2022-12-23T23:39:05.310Z,18.55
2022-12-23T23:41:31.830Z,20.88
2022-12-23T23:43:58.405Z,15.05
2022-12-23T23:46:24.921Z,16.65
2022-12-23T23:48:51.517Z,14.40
2022-12-23T23:51:19.602Z,13.73
2022-12-23T23:53:47.309Z,15.98
2022-12-23T23:56:15.792Z,16.27
2022-12-23T23:58:44.714Z,26.90
